createdAt,value
2019-04-20T00:00:25.260Z,61.31
2019-04-20T00:01:29.248Z,61.41
2019-04-20T00:02:25.588Z,61.51
2019-04-20T00:03:34.664Z,61.82
2019-04-20T00:04:30.361Z,62.43
2019-04-20T00:05:25.515Z,61.82
2019-04-20T00:06:24.976Z,62.43
2019-04-20T00:07:29.486Z,62.54
2019-04-20T00:08:29.374Z,62.13
2019-04-20T00:09:29.851Z,62.02
2019-04-20T00:10:27.264Z,62.23
2019-04-20T00:11:31.022Z,62.57
2019-04-20T00:12:36.858Z,62.63
2019-04-20T00:13:37.819Z,62.74
2019-04-20T00:14:29.607Z,62.57
2019-04-20T00:15:26.029Z,62.87
2019-04-20T00:16:25.211Z,62.87
2019-04-20T00:17:25.519Z,62.77
2019-04-20T00:18:28.072Z,62.66
2019-04-20T00:19:33.416Z,62.98
2019-04-20T00:20:30.625Z,62.98
2019-04-20T00:22:36.731Z,63.39
2019-04-20T00:23:32.763Z,63.69
2019-04-20T00:24:30.303Z,63.39
2019-04-20T00:25:38.558Z,63.51
2019-04-20T00:26:57.840Z,64.03
2019-04-20T00:27:44.474Z,63.72
2019-04-20T00:28:45.612Z,63.31
2019-04-20T00:29:45.411Z,64.23
2019-04-20T00:30:49.069Z,64.03
2019-04-20T00:31:42.162Z,63.62
2019-04-20T00:32:41.252Z,63.72
2019-04-20T00:33:40.979Z,64.13
2019-04-20T00:34:30.469Z,64.64
2019-04-20T00:35:25.197Z,63.92
2019-04-20T00:36:24.345Z,64.43
2019-04-20T00:37:25.382Z,63.82
2019-04-20T00:38:28.001Z,63.82
2019-04-20T00:39:25.903Z,63.31
2019-04-20T00:40:24.134Z,63.00
2019-04-20T00:41:25.526Z,62.73
2019-04-20T00:42:33.155Z,62.70
2019-04-20T00:43:30.745Z,62.70
2019-04-20T00:44:31.659Z,63.72
2019-04-20T00:45:29.594Z,63.62
2019-04-20T00:46:34.007Z,63.62
2019-04-20T00:47:37.104Z,63.72
2019-04-20T00:48:35.306Z,63.85
2019-04-20T00:49:38.836Z,63.75
2019-04-20T00:50:41.176Z,65.08
2019-04-20T00:51:39.562Z,64.77
2019-04-20T00:52:41.237Z,64.77
2019-04-20T00:53:31.393Z,64.16
2019-04-20T00:54:26.279Z,63.65
2019-04-20T00:55:25.194Z,64.26
2019-04-20T00:56:24.466Z,63.85
2019-04-20T00:57:34.673Z,64.06
2019-04-20T00:58:31.652Z,63.75
2019-04-20T00:59:35.426Z,63.85
2019-04-20T01:00:41.064Z,63.75
2019-04-20T01:01:43.906Z,63.54
2019-04-20T01:02:37.115Z,63.65
2019-04-20T01:03:39.092Z,63.95
2019-04-20T01:04:46.224Z,63.95
2019-04-20T01:05:46.560Z,63.57
2019-04-20T01:06:41.017Z,63.34
2019-04-20T01:07:35.105Z,63.37
2019-04-20T01:08:25.471Z,63.75
2019-04-20T01:09:24.606Z,63.68
2019-04-20T01:10:29.219Z,63.57
2019-04-20T01:11:33.217Z,64.36
2019-04-20T01:12:28.537Z,64.06
2019-04-20T01:13:26.662Z,64.47
2019-04-20T01:14:36.108Z,63.95
2019-04-20T01:15:35.246Z,63.34
2019-04-20T01:16:36.832Z,62.83
2019-04-20T01:17:24.717Z,62.83
2019-04-20T01:18:23.735Z,63.24
2019-04-20T01:19:23.700Z,62.83
2019-04-20T01:20:26.558Z,63.95
2019-04-20T01:21:26.534Z,63.65
2019-04-20T01:22:27.297Z,62.73
2019-04-20T01:23:29.192Z,63.65
2019-04-20T01:24:32.809Z,63.65
2019-04-20T01:25:31.733Z,63.85
2019-04-20T01:26:26.027Z,63.54
2019-04-20T01:27:37.848Z,63.13
2019-04-20T01:28:37.452Z,63.17
2019-04-20T01:29:32.362Z,62.65
2019-04-20T01:30:31.987Z,63.78
2019-04-20T01:31:33.628Z,63.88
2019-04-20T01:32:34.301Z,64.29
2019-04-20T01:33:37.282Z,64.18
2019-04-20T01:34:38.955Z,64.50
2019-04-20T01:35:39.178Z,64.39
2019-04-20T01:36:40.671Z,65.11
2019-04-20T01:37:36.484Z,64.62
2019-04-20T01:38:42.731Z,64.73
2019-04-20T01:39:32.934Z,64.73
2019-04-20T01:40:25.362Z,64.83
2019-04-20T01:41:24.439Z,65.14
2019-04-20T01:42:23.510Z,64.94
2019-04-20T01:43:24.675Z,64.94
2019-04-20T01:44:29.924Z,65.86
2019-04-20T01:45:29.334Z,65.14
2019-04-20T01:46:28.025Z,66.27
2019-04-20T01:47:30.560Z,66.37
2019-04-20T01:48:28.738Z,66.19
2019-04-20T01:49:28.659Z,65.78
2019-04-20T01:50:28.419Z,65.17
2019-04-20T01:51:28.639Z,65.99
2019-04-20T01:52:28.827Z,66.50
2019-04-20T01:53:41.154Z,65.07
2019-04-20T01:54:44.565Z,66.30
2019-04-20T01:55:57.009Z,64.97
2019-04-20T01:56:36.177Z,65.27
2019-04-20T01:57:29.841Z,65.27
2019-04-20T01:58:39.846Z,65.81
2019-04-20T01:59:34.480Z,65.92
2019-04-20T02:00:29.619Z,65.20
2019-04-20T02:01:29.444Z,65.17
2019-04-20T02:02:26.068Z,65.07
2019-04-20T02:03:31.322Z,66.33
2019-04-20T02:04:27.986Z,66.74
2019-04-20T02:05:29.671Z,67.05
2019-04-20T02:06:26.796Z,66.94
2019-04-20T02:07:28.432Z,66.74
2019-04-20T02:08:27.469Z,66.84
2019-04-20T02:09:27.357Z,67.14
2019-04-20T02:10:31.949Z,67.25
2019-04-20T02:11:29.617Z,67.05
2019-04-20T02:12:27.514Z,66.84
2019-04-20T02:13:26.410Z,66.74
2019-04-20T02:14:32.631Z,67.05
2019-04-20T02:15:32.704Z,66.87
2019-04-20T02:16:31.786Z,67.49
2019-04-20T02:17:33.585Z,67.08
2019-04-20T02:18:39.279Z,67.18
2019-04-20T02:19:39.253Z,67.08
2019-04-20T02:20:45.039Z,67.90
2019-04-20T02:21:38.202Z,67.38
2019-04-20T02:22:42.155Z,69.23
2019-04-20T02:23:34.732Z,69.02
2019-04-20T02:24:23.993Z,68.82
2019-04-20T02:25:22.982Z,68.51
2019-04-20T02:26:23.983Z,68.41
2019-04-20T02:27:30.843Z,68.44
2019-04-20T02:28:44.356Z,68.92
2019-04-20T02:29:46.107Z,68.65
2019-04-20T02:31:06.383Z,68.54
2019-04-20T02:32:04.699Z,69.47
2019-04-20T02:33:01.109Z,69.37
2019-04-20T02:33:55.746Z,69.06
2019-04-20T02:34:55.603Z,68.75
2019-04-20T02:36:04.160Z,69.19
2019-04-20T02:38:05.671Z,69.40
2019-04-20T02:40:02.885Z,69.06
2019-04-20T02:40:57.409Z,69.09
2019-04-20T02:42:57.563Z,69.06
2019-04-20T02:44:19.812Z,69.50
2019-04-20T02:45:01.391Z,69.09
2019-04-20T02:45:50.552Z,69.29
2019-04-20T02:46:56.888Z,69.40
2019-04-20T02:48:06.522Z,69.09
2019-04-20T02:49:01.035Z,68.99
2019-04-20T02:50:07.505Z,68.48
2019-04-20T02:50:59.015Z,68.78
2019-04-20T02:51:54.745Z,68.57
2019-04-20T02:53:15.498Z,69.29
2019-04-20T02:54:14.065Z,68.88
2019-04-20T02:55:02.087Z,69.19
2019-04-20T02:55:58.565Z,69.81
2019-04-20T02:59:15.112Z,69.06
2019-04-20T03:00:49.398Z,69.16
2019-04-20T03:01:51.905Z,69.37
2019-04-20T03:02:37.305Z,70.01
2019-04-20T03:03:32.837Z,69.37
2019-04-20T03:04:35.070Z,69.16
2019-04-20T03:05:35.244Z,69.16
2019-04-20T03:06:33.033Z,69.16
2019-04-20T03:07:34.119Z,69.06
2019-04-20T03:08:47.280Z,68.78
2019-04-20T03:09:45.716Z,69.06
2019-04-20T03:10:58.535Z,69.06
2019-04-20T03:11:53.006Z,69.37
2019-04-20T03:12:44.894Z,68.75
2019-04-20T03:13:45.029Z,69.19
2019-04-20T03:14:39.623Z,69.09
2019-04-20T03:15:44.527Z,68.96
2019-04-20T03:16:39.298Z,68.99
2019-04-20T03:17:44.610Z,68.34
2019-04-20T03:18:39.963Z,69.09
2019-04-20T03:19:40.841Z,68.88
2019-04-20T03:20:46.269Z,68.48
2019-04-20T03:21:49.797Z,68.48
2019-04-20T03:23:05.193Z,69.19
2019-04-20T03:23:52.167Z,68.34
2019-04-20T03:24:59.082Z,69.60
2019-04-20T03:25:53.442Z,68.99
2019-04-20T03:26:43.132Z,68.78
2019-04-20T03:27:39.392Z,69.26
2019-04-20T03:28:38.812Z,68.96
2019-04-20T03:29:47.392Z,68.96
2019-04-20T03:32:22.136Z,68.44
2019-04-20T03:33:21.003Z,68.96
2019-04-20T03:34:03.388Z,68.65
2019-04-20T03:35:01.162Z,68.44
2019-04-20T03:35:52.794Z,69.50
2019-04-20T03:36:55.057Z,67.93
2019-04-20T03:38:01.321Z,68.44
2019-04-20T03:38:43.320Z,68.85
2019-04-20T03:39:40.542Z,68.99
2019-04-20T03:40:37.342Z,68.96
2019-04-20T03:41:32.506Z,68.48
2019-04-20T03:42:24.336Z,69.29
2019-04-20T03:43:22.307Z,68.37
2019-04-20T03:44:26.391Z,68.75
2019-04-20T03:45:25.417Z,68.48
2019-04-20T03:46:31.087Z,69.09
2019-04-20T03:47:33.750Z,69.09
2019-04-20T03:48:41.482Z,68.68
2019-04-20T03:49:50.725Z,68.48
2019-04-20T03:51:47.101Z,69.09
2019-04-20T03:52:38.426Z,68.48
2019-04-20T03:53:43.319Z,68.88
2019-04-20T03:54:34.686Z,68.68
2019-04-20T03:55:41.953Z,68.78
2019-04-20T03:56:46.278Z,69.19
2019-04-20T03:57:47.053Z,69.29
2019-04-20T03:58:37.843Z,69.29
2019-04-20T03:59:41.263Z,68.48
2019-04-20T04:00:42.482Z,69.19
2019-04-20T04:02:02.155Z,69.09
2019-04-20T04:02:54.589Z,69.09
2019-04-20T04:03:47.013Z,68.48
2019-04-20T04:04:44.319Z,68.99
2019-04-20T04:05:38.454Z,69.09
2019-04-20T04:06:31.193Z,69.19
2019-04-20T04:07:32.308Z,68.99
2019-04-20T04:08:30.949Z,68.57
2019-04-20T04:09:33.166Z,69.09
2019-04-20T04:10:33.728Z,69.09
2019-04-20T04:11:38.162Z,68.88
2019-04-20T04:12:30.497Z,68.37
2019-04-20T04:13:23.031Z,68.88
2019-04-20T04:14:21.949Z,68.78
2019-04-20T04:15:23.034Z,69.29
2019-04-20T04:16:23.817Z,69.09
2019-04-20T04:17:28.802Z,69.19
2019-04-20T04:18:29.862Z,69.02
2019-04-20T04:19:28.469Z,69.02
2019-04-20T04:20:23.210Z,69.23
2019-04-20T04:21:41.190Z,68.91
2019-04-20T04:22:42.009Z,69.12
2019-04-20T04:23:40.830Z,69.64
2019-04-20T04:24:31.519Z,69.94
2019-04-20T04:25:33.664Z,69.84
2019-04-20T04:26:38.945Z,69.53
2019-04-20T04:27:43.809Z,69.12
2019-04-20T04:28:32.199Z,69.43
2019-04-20T04:29:44.186Z,69.74
2019-04-20T04:30:39.303Z,69.56
2019-04-20T04:31:50.697Z,69.64
2019-04-20T04:33:10.911Z,69.43
2019-04-20T04:34:39.136Z,69.77
2019-04-20T04:35:35.066Z,70.25
2019-04-20T04:36:44.566Z,69.98
2019-04-20T04:37:40.818Z,69.67
2019-04-20T04:38:59.832Z,69.36
2019-04-20T04:39:42.815Z,70.08
2019-04-20T04:40:49.705Z,69.77
2019-04-20T04:41:43.926Z,69.46
2019-04-20T04:42:46.604Z,69.46
2019-04-20T04:43:42.605Z,69.46
2019-04-20T04:44:35.404Z,70.08
2019-04-20T04:45:26.744Z,70.18
2019-04-20T04:46:22.843Z,70.25
2019-04-20T04:47:21.898Z,70.59
2019-04-20T04:48:28.241Z,70.49
2019-04-20T04:49:28.457Z,71.00
2019-04-20T04:50:25.200Z,70.79
2019-04-20T04:52:30.909Z,70.59
2019-04-20T04:53:29.864Z,70.59
2019-04-20T04:54:33.593Z,70.70
2019-04-20T04:55:32.770Z,71.31
2019-04-20T04:56:25.177Z,71.62
2019-04-20T04:57:22.248Z,71.83
2019-04-20T04:58:21.640Z,71.62
2019-04-20T04:59:21.429Z,72.13
2019-04-20T05:00:26.215Z,72.34
2019-04-20T05:01:27.410Z,72.24
2019-04-20T05:02:29.688Z,72.24
2019-04-20T05:03:38.720Z,72.03
2019-04-20T05:04:48.344Z,71.83
2019-04-20T05:05:41.379Z,72.44
2019-04-20T05:06:35.897Z,71.93
2019-04-20T05:07:34.277Z,72.24
2019-04-20T05:08:30.436Z,72.24
2019-04-20T05:09:23.748Z,71.93
2019-04-20T05:10:22.319Z,72.24
2019-04-20T05:11:21.696Z,73.06
2019-04-20T05:12:24.281Z,72.55
2019-04-20T05:13:26.797Z,72.85
2019-04-20T05:14:32.049Z,72.85
2019-04-20T05:15:37.657Z,72.75
2019-04-20T05:16:42.793Z,72.75
2019-04-20T05:17:43.473Z,72.55
2019-04-20T05:18:44.972Z,72.55
2019-04-20T05:19:41.250Z,72.75
2019-04-20T05:20:47.049Z,72.55
2019-04-20T05:21:44.581Z,72.55
2019-04-20T05:22:42.893Z,72.65
2019-04-20T05:23:35.341Z,72.24
2019-04-20T05:24:33.798Z,72.65
2019-04-20T05:25:37.795Z,72.65
2019-04-20T05:26:42.684Z,72.20
2019-04-20T05:27:44.000Z,72.41
2019-04-20T05:28:33.333Z,72.51
2019-04-20T05:29:29.295Z,72.00
2019-04-20T05:30:22.424Z,72.10
2019-04-20T05:31:23.235Z,70.73
2019-04-20T05:32:32.764Z,70.84
2019-04-20T05:33:34.365Z,70.22
2019-04-20T05:34:45.362Z,70.22
2019-04-20T05:35:47.202Z,70.73
2019-04-20T05:36:41.511Z,70.42
2019-04-20T05:37:51.453Z,69.78
2019-04-20T05:39:05.226Z,69.47
2019-04-20T05:39:48.594Z,69.33
2019-04-20T05:40:38.612Z,68.85
2019-04-20T05:41:44.021Z,68.30
2019-04-20T05:42:44.197Z,68.82
2019-04-20T05:43:37.204Z,67.79
2019-04-20T05:44:42.377Z,68.38
2019-04-20T05:45:35.395Z,68.17
2019-04-20T05:46:42.406Z,67.56
2019-04-20T05:47:43.156Z,67.52
2019-04-20T05:48:48.741Z,67.32
2019-04-20T05:49:41.054Z,67.70
2019-04-20T05:50:43.057Z,67.19
2019-04-20T05:51:39.676Z,67.60
2019-04-20T05:52:50.425Z,67.26
2019-04-20T05:53:47.463Z,66.03
2019-04-20T05:54:44.665Z,66.44
2019-04-20T05:55:43.008Z,67.46
2019-04-20T05:57:00.914Z,65.80
2019-04-20T05:57:42.284Z,65.18
2019-04-20T05:58:40.541Z,65.28
2019-04-20T05:59:49.382Z,65.87
2019-04-20T06:00:48.115Z,64.43
2019-04-20T06:01:47.433Z,64.33
2019-04-20T06:02:44.110Z,64.61
2019-04-20T06:03:38.282Z,64.30
2019-04-20T06:04:54.553Z,64.61
2019-04-20T06:05:48.800Z,63.66
2019-04-20T06:06:44.646Z,63.96
2019-04-20T06:07:44.156Z,63.28
2019-04-20T06:08:47.963Z,63.35
2019-04-20T06:09:42.311Z,62.54
2019-04-20T06:10:45.208Z,62.40
2019-04-20T06:12:00.849Z,62.81
2019-04-20T06:12:40.209Z,62.58
2019-04-20T06:13:36.926Z,63.60
2019-04-20T06:14:39.414Z,62.07
2019-04-20T06:15:42.938Z,61.35
2019-04-20T06:16:48.519Z,62.04
2019-04-20T06:17:44.470Z,61.83
2019-04-20T06:18:37.249Z,62.35
2019-04-20T06:19:39.494Z,60.41
2019-04-20T06:20:41.152Z,60.07
2019-04-20T06:21:45.708Z,59.97
2019-04-20T06:22:40.768Z,60.45
2019-04-20T06:23:45.597Z,59.23
2019-04-20T06:24:46.892Z,58.72
2019-04-20T06:25:53.807Z,58.51
2019-04-20T06:26:50.917Z,59.43
2019-04-20T06:27:49.208Z,59.10
2019-04-20T06:28:37.797Z,59.30
2019-04-20T06:29:43.446Z,58.89
2019-04-20T06:30:38.097Z,58.89
2019-04-20T06:31:41.013Z,58.97
2019-04-20T06:32:39.221Z,58.15
2019-04-20T06:34:12.805Z,58.67
2019-04-20T06:34:53.481Z,57.85
2019-04-20T06:36:00.955Z,57.14
2019-04-20T06:36:46.145Z,57.75
2019-04-20T06:37:44.160Z,58.74
2019-04-20T06:38:58.835Z,58.53
2019-04-20T06:39:44.773Z,57.31
2019-04-20T06:42:02.207Z,57.72
2019-04-20T06:42:39.779Z,58.64
2019-04-20T06:43:46.030Z,57.39
2019-04-20T06:44:56.927Z,58.10
2019-04-20T06:45:51.125Z,57.90
2019-04-20T06:46:43.166Z,58.10
2019-04-20T06:47:50.103Z,57.08
2019-04-20T06:48:45.902Z,56.98
2019-04-20T06:49:56.785Z,57.97
2019-04-20T06:50:39.052Z,56.75
2019-04-20T06:51:41.768Z,56.55
2019-04-20T06:52:41.489Z,55.91
2019-04-20T06:53:45.270Z,56.45
2019-04-20T06:54:44.856Z,56.12
2019-04-20T06:55:49.764Z,55.10
2019-04-20T06:56:42.001Z,55.30
2019-04-20T06:57:54.759Z,56.21
2019-04-20T06:59:43.128Z,55.68
2019-04-20T07:00:42.188Z,55.88
2019-04-20T07:01:50.032Z,55.96
2019-04-20T07:02:54.000Z,55.25
2019-04-20T07:03:58.101Z,55.15
2019-04-20T07:04:58.012Z,54.33
2019-04-20T07:05:39.508Z,54.54
2019-04-20T07:06:54.920Z,54.51
2019-04-20T07:07:45.464Z,55.02
2019-04-20T07:08:56.839Z,54.61
2019-04-20T07:10:46.867Z,54.61
2019-04-20T07:11:45.065Z,54.31
2019-04-20T07:12:39.581Z,53.88
2019-04-20T07:13:33.108Z,54.18
2019-04-20T07:14:32.911Z,53.37
2019-04-20T07:15:36.444Z,53.37
2019-04-20T07:16:43.289Z,54.16
2019-04-20T07:17:47.985Z,53.04
2019-04-20T07:18:42.502Z,53.52
2019-04-20T07:19:40.137Z,53.83
2019-04-20T07:20:51.680Z,53.32
2019-04-20T07:21:55.898Z,52.51
2019-04-20T07:22:39.440Z,52.18
2019-04-20T07:23:40.673Z,52.31
2019-04-20T07:24:48.933Z,51.98
2019-04-20T07:25:43.287Z,51.88
2019-04-20T07:26:44.971Z,51.88
2019-04-20T07:27:41.541Z,52.39
2019-04-20T07:28:45.093Z,51.98
2019-04-20T07:29:46.310Z,50.94
2019-04-20T07:30:41.513Z,52.06
2019-04-20T07:31:43.305Z,51.55
2019-04-20T07:32:48.627Z,51.65
2019-04-20T07:33:39.947Z,50.54
2019-04-20T07:34:38.706Z,50.82
2019-04-20T07:35:44.854Z,49.70
2019-04-20T07:37:57.179Z,49.60
2019-04-20T07:39:02.107Z,50.69
2019-04-20T07:39:46.225Z,50.69
2019-04-20T07:40:38.136Z,50.29
2019-04-20T07:41:47.762Z,49.66
2019-04-20T07:42:52.362Z,49.86
2019-04-20T07:43:54.025Z,50.97
2019-04-20T07:44:51.189Z,50.16
2019-04-20T07:45:40.096Z,49.35
2019-04-20T07:46:56.375Z,49.33
2019-04-20T07:48:01.682Z,48.22
2019-04-20T07:48:39.627Z,49.22
2019-04-20T07:49:41.616Z,47.81
2019-04-20T07:50:34.726Z,48.93
2019-04-20T07:51:27.707Z,48.93
2019-04-20T07:52:33.834Z,47.61
2019-04-20T07:53:37.913Z,48.72
2019-04-20T07:54:49.274Z,48.39
2019-04-20T07:56:44.785Z,47.79
2019-04-20T07:57:39.096Z,47.08
2019-04-20T07:58:31.677Z,47.16
2019-04-20T07:59:34.022Z,47.39
2019-04-20T08:00:51.886Z,47.26
2019-04-20T08:01:47.897Z,48.07
2019-04-20T08:02:42.540Z,47.97
2019-04-20T08:03:44.190Z,46.13
2019-04-20T08:04:36.777Z,47.14
2019-04-20T08:05:33.709Z,46.13
2019-04-20T08:06:28.941Z,45.73
2019-04-20T08:07:36.149Z,46.01
2019-04-20T08:08:35.025Z,45.50
2019-04-20T08:09:28.855Z,45.90
2019-04-20T08:10:33.821Z,47.40
2019-04-20T08:11:44.836Z,46.39
2019-04-20T08:12:41.802Z,45.28
2019-04-20T08:13:45.696Z,46.37
2019-04-20T08:14:46.709Z,45.58
2019-04-20T08:15:49.274Z,45.36
2019-04-20T08:16:46.699Z,44.85
2019-04-20T08:17:51.281Z,44.25
2019-04-20T08:18:46.976Z,43.22
2019-04-20T08:19:39.714Z,43.14
2019-04-20T08:20:43.920Z,43.04
2019-04-20T08:21:43.684Z,43.62
2019-04-20T08:22:46.643Z,43.62
2019-04-20T08:23:38.641Z,43.62
2019-04-20T08:24:37.193Z,43.42
2019-04-20T08:25:35.098Z,42.90
2019-04-20T08:26:28.306Z,44.01
2019-04-20T08:27:21.241Z,43.60
2019-04-20T08:28:28.409Z,43.10
2019-04-20T08:29:33.931Z,42.38
2019-04-20T08:30:35.308Z,41.06
2019-04-20T08:31:33.505Z,43.18
2019-04-20T08:32:37.741Z,43.28
2019-04-20T08:33:47.086Z,43.06
2019-04-20T08:34:43.175Z,42.66
2019-04-20T08:35:48.109Z,43.44
2019-04-20T08:36:43.230Z,42.44
2019-04-20T08:37:40.095Z,42.44
2019-04-20T08:40:43.478Z,42.33
2019-04-20T08:41:38.518Z,43.14
2019-04-20T08:42:49.961Z,42.72
2019-04-20T08:43:47.235Z,43.04
2019-04-20T08:44:53.813Z,43.52
2019-04-20T08:45:43.024Z,42.82
2019-04-20T08:46:40.330Z,42.11
2019-04-20T08:47:44.784Z,42.10
2019-04-20T08:48:43.571Z,40.48
2019-04-20T08:49:41.407Z,41.49
2019-04-20T08:50:35.671Z,41.19
2019-04-20T08:51:53.783Z,40.48
2019-04-20T08:53:44.686Z,42.49
2019-04-20T08:54:34.475Z,40.99
2019-04-20T08:55:38.772Z,40.99
2019-04-20T08:56:31.821Z,42.40
2019-04-20T08:57:20.092Z,42.58
2019-04-20T08:58:18.704Z,41.27
2019-04-20T08:59:18.944Z,42.78
2019-04-20T09:00:27.802Z,40.75
2019-04-20T09:01:21.551Z,41.15
2019-04-20T09:02:20.694Z,40.55
2019-04-20T09:03:25.382Z,40.85
2019-04-20T09:04:24.267Z,40.93
2019-04-20T09:05:31.132Z,40.93
2019-04-20T09:06:36.509Z,40.33
2019-04-20T09:07:24.378Z,40.23
2019-04-20T09:08:24.976Z,39.53
2019-04-20T09:09:56.451Z,40.63
2019-04-20T09:10:39.432Z,40.41
2019-04-20T09:11:45.145Z,38.31
2019-04-20T09:12:35.756Z,38.90
2019-04-20T09:13:26.911Z,38.09
2019-04-20T09:14:21.443Z,38.29
2019-04-20T09:15:19.011Z,40.79
2019-04-20T09:16:20.776Z,38.59
2019-04-20T09:17:28.465Z,37.79
2019-04-20T09:18:26.000Z,38.99
2019-04-20T09:19:32.486Z,38.27
2019-04-20T09:20:35.004Z,38.97
2019-04-20T09:21:30.384Z,37.27
2019-04-20T09:22:28.367Z,37.16
2019-04-20T09:23:33.489Z,38.97
2019-04-20T09:24:43.551Z,38.57
2019-04-20T09:25:53.381Z,37.05
2019-04-20T09:26:37.699Z,38.55
2019-04-20T09:27:29.262Z,38.95
2019-04-20T09:28:31.100Z,38.95
2019-04-20T09:29:33.392Z,38.65
2019-04-20T09:30:34.876Z,38.23
2019-04-20T09:31:36.490Z,38.45
2019-04-20T09:32:34.337Z,38.45
2019-04-20T09:33:36.375Z,38.33
2019-04-20T09:34:41.910Z,38.43
2019-04-20T09:35:39.137Z,37.83
2019-04-20T09:36:33.601Z,36.73
2019-04-20T09:37:36.902Z,37.23
2019-04-20T09:38:37.892Z,37.11
2019-04-20T09:39:28.041Z,37.61
2019-04-20T09:40:37.203Z,38.21
2019-04-20T09:41:45.257Z,37.90
2019-04-20T09:42:19.267Z,37.10
2019-04-20T09:43:19.082Z,38.21
2019-04-20T09:44:18.215Z,38.91
2019-04-20T09:45:30.253Z,38.59
2019-04-20T09:46:20.010Z,39.00
2019-04-20T09:47:26.471Z,37.29
2019-04-20T09:48:29.631Z,36.99
2019-04-20T09:49:34.501Z,37.19
2019-04-20T09:50:33.470Z,37.40
2019-04-20T09:51:38.830Z,37.70
2019-04-20T09:52:31.264Z,38.20
2019-04-20T09:53:29.438Z,36.98
2019-04-20T09:54:36.091Z,37.59
2019-04-20T09:55:31.253Z,37.58
2019-04-20T09:56:32.423Z,37.38
2019-04-20T09:57:42.530Z,37.38
2019-04-20T09:58:30.925Z,38.16
2019-04-20T09:59:39.728Z,37.64
2019-04-20T10:00:37.371Z,37.04
2019-04-20T10:01:30.439Z,37.04
2019-04-20T10:02:24.933Z,37.84
2019-04-20T10:03:18.983Z,36.93
2019-04-20T10:04:17.981Z,36.32
2019-04-20T10:05:17.962Z,36.93
2019-04-20T10:06:23.029Z,34.83
2019-04-20T10:07:22.276Z,35.03
2019-04-20T10:08:19.659Z,36.52
2019-04-20T10:09:20.403Z,37.62
2019-04-20T10:10:31.151Z,35.03
2019-04-20T10:11:19.422Z,35.23
2019-04-20T10:12:17.935Z,36.63
2019-04-20T10:13:17.887Z,36.43
2019-04-20T10:14:17.891Z,36.31
2019-04-20T10:15:21.360Z,35.51
2019-04-20T10:16:19.726Z,34.41
2019-04-20T10:17:18.134Z,34.50
2019-04-20T10:18:17.860Z,35.41
2019-04-20T10:19:25.117Z,35.79
2019-04-20T10:20:26.715Z,34.39
2019-04-20T10:21:19.911Z,34.69
2019-04-20T10:22:18.447Z,34.68
2019-04-20T10:23:18.556Z,34.48
2019-04-20T10:24:18.871Z,34.88
2019-04-20T10:25:18.296Z,35.08
2019-04-20T10:26:18.650Z,34.28
2019-04-20T10:27:18.765Z,34.48
2019-04-20T10:28:17.744Z,34.08
2019-04-20T10:29:17.703Z,34.09
2019-04-20T10:30:18.649Z,35.77
2019-04-20T10:31:17.679Z,34.08
2019-04-20T10:32:17.980Z,35.68
2019-04-20T10:33:17.719Z,34.66
2019-04-20T10:34:18.041Z,34.86
2019-04-20T10:35:18.833Z,34.05
2019-04-20T10:37:19.764Z,33.55
2019-04-20T10:38:17.916Z,32.65
2019-04-20T10:39:18.477Z,33.65
2019-04-20T10:40:35.797Z,33.93
2019-04-20T10:41:29.617Z,34.03
2019-04-20T10:42:18.562Z,32.54
2019-04-20T10:43:17.589Z,32.64
2019-04-20T10:44:18.646Z,33.22
2019-04-20T10:45:17.531Z,33.02
2019-04-20T10:46:17.530Z,32.64
2019-04-20T10:47:18.884Z,32.64
2019-04-20T10:48:17.514Z,33.81
2019-04-20T10:49:17.599Z,32.92
2019-04-20T10:50:18.758Z,32.82
2019-04-20T10:51:17.757Z,32.23
2019-04-20T10:52:17.875Z,33.22
2019-04-20T10:53:17.651Z,32.32
2019-04-20T10:54:18.405Z,32.82
2019-04-20T10:55:18.609Z,32.72
2019-04-20T10:56:17.420Z,30.43
2019-04-20T10:57:17.517Z,31.32
2019-04-20T10:58:17.721Z,30.91
2019-04-20T10:59:17.408Z,31.32
2019-04-20T11:00:17.592Z,32.21
2019-04-20T11:01:17.851Z,32.99
2019-04-20T11:02:17.353Z,31.50
2019-04-20T11:03:17.768Z,30.60
2019-04-20T11:04:18.737Z,31.30
2019-04-20T11:05:17.320Z,31.90
2019-04-20T11:06:18.559Z,30.80
2019-04-20T11:07:18.513Z,29.61
2019-04-20T11:08:17.285Z,29.61
2019-04-20T11:09:18.464Z,29.61
2019-04-20T11:10:22.791Z,31.10
2019-04-20T11:11:25.270Z,31.48
2019-04-20T11:12:18.244Z,30.29
2019-04-20T11:13:17.305Z,31.38
2019-04-20T11:14:24.657Z,29.98
2019-04-20T11:15:18.666Z,31.27
2019-04-20T11:16:18.108Z,30.28
2019-04-20T11:17:18.212Z,31.17
2019-04-20T11:18:17.690Z,29.86
2019-04-20T11:19:17.203Z,29.78
2019-04-20T11:20:17.320Z,29.28
2019-04-20T11:21:17.500Z,29.08
2019-04-20T11:22:17.131Z,28.89
2019-04-20T11:23:18.207Z,28.89
2019-04-20T11:24:18.310Z,29.86
2019-04-20T11:25:17.141Z,30.36
2019-04-20T11:26:18.121Z,29.86
2019-04-20T11:27:18.337Z,29.86
2019-04-20T11:28:17.070Z,28.88
2019-04-20T11:29:18.159Z,27.40
2019-04-20T11:30:18.214Z,27.40
2019-04-20T11:31:17.054Z,27.30
2019-04-20T11:32:18.034Z,28.97
2019-04-20T11:33:18.239Z,28.97
2019-04-20T11:34:24.889Z,28.96
2019-04-20T11:35:25.722Z,29.46
2019-04-20T11:36:19.154Z,29.36
2019-04-20T11:37:17.278Z,27.67
2019-04-20T11:38:17.458Z,29.04
2019-04-20T11:39:16.949Z,28.85
2019-04-20T11:40:17.087Z,29.04
2019-04-20T11:41:23.756Z,28.55
2019-04-20T11:42:17.926Z,28.75
2019-04-20T11:43:17.810Z,27.44
2019-04-20T11:44:17.912Z,27.84
2019-04-20T11:45:18.329Z,29.23
2019-04-20T11:46:16.888Z,27.94
2019-04-20T11:47:16.899Z,27.94
2019-04-20T11:48:16.865Z,28.93
2019-04-20T11:49:17.495Z,27.94
2019-04-20T11:50:17.843Z,28.34
2019-04-20T11:51:16.819Z,29.92
2019-04-20T11:52:19.687Z,28.32
2019-04-20T11:53:17.487Z,27.73
2019-04-20T11:54:16.783Z,27.63
2019-04-20T11:55:18.067Z,26.34
2019-04-20T11:56:22.450Z,26.54
2019-04-20T11:57:17.751Z,26.14
2019-04-20T11:58:16.746Z,27.03
2019-04-20T11:59:16.988Z,27.62
2019-04-20T12:00:17.262Z,25.84
2019-04-20T12:01:20.805Z,27.12
2019-04-20T12:02:25.317Z,27.72
2019-04-20T12:03:25.079Z,27.12
2019-04-20T12:04:30.697Z,25.84
2019-04-20T12:05:28.114Z,27.42
2019-04-20T12:06:18.939Z,28.21
2019-04-20T12:07:17.127Z,27.31
2019-04-20T12:08:16.730Z,24.95
2019-04-20T12:09:17.056Z,26.53
2019-04-20T12:10:20.990Z,27.80
2019-04-20T12:11:26.546Z,27.22
2019-04-20T12:12:27.258Z,27.33
2019-04-20T12:13:18.484Z,27.53
2019-04-20T12:14:16.763Z,27.84
2019-04-20T12:15:16.903Z,28.44
2019-04-20T12:16:17.332Z,29.13
2019-04-20T12:17:17.639Z,28.03
2019-04-20T12:18:17.831Z,27.63
2019-04-20T12:19:16.514Z,27.43
2019-04-20T12:20:16.779Z,27.23
2019-04-20T12:21:16.863Z,27.34
2019-04-20T12:22:16.494Z,28.73
2019-04-20T12:23:16.485Z,27.34
2019-04-20T12:24:16.564Z,27.63
2019-04-20T12:25:16.456Z,27.84
2019-04-20T12:26:16.472Z,27.34
2019-04-20T12:27:16.715Z,27.66
2019-04-20T12:28:17.852Z,28.15
2019-04-20T12:29:16.419Z,27.66
2019-04-20T12:30:17.519Z,27.16
2019-04-20T12:31:20.414Z,27.95
2019-04-20T12:32:17.379Z,28.85
2019-04-20T12:33:17.683Z,28.14
2019-04-20T12:34:16.376Z,27.25
2019-04-20T12:35:16.354Z,27.55
2019-04-20T12:36:16.493Z,27.15
2019-04-20T12:37:16.318Z,27.55
2019-04-20T12:38:17.150Z,30.22
2019-04-20T12:39:17.258Z,27.25
2019-04-20T12:40:17.358Z,27.34
2019-04-20T12:41:16.318Z,27.84
2019-04-20T12:42:17.001Z,27.55
2019-04-20T12:43:17.359Z,27.26
2019-04-20T12:44:17.490Z,28.15
2019-04-20T12:45:17.590Z,27.86
2019-04-20T12:46:18.338Z,27.64
2019-04-20T12:47:17.476Z,27.04
2019-04-20T12:48:17.513Z,27.25
2019-04-20T12:49:16.210Z,27.94
2019-04-20T12:51:17.545Z,27.83
2019-04-20T12:52:16.666Z,28.61
2019-04-20T12:53:17.036Z,27.32
2019-04-20T12:54:16.571Z,27.21
2019-04-20T12:55:16.646Z,26.92
2019-04-20T12:56:16.888Z,25.65
2019-04-20T12:57:16.571Z,27.22
2019-04-20T12:58:16.726Z,25.65
2019-04-20T12:59:16.082Z,25.85
2019-04-20T13:00:17.353Z,26.74
2019-04-20T13:01:17.765Z,26.54
2019-04-20T13:02:17.488Z,28.34
2019-04-20T13:03:17.282Z,25.74
2019-04-20T13:04:16.495Z,27.55
2019-04-20T13:05:17.477Z,26.06
2019-04-20T13:06:16.321Z,25.77
2019-04-20T13:07:16.041Z,26.65
2019-04-20T13:08:23.298Z,27.46
2019-04-20T13:09:16.990Z,27.55
2019-04-20T13:10:15.988Z,26.75
2019-04-20T13:11:16.309Z,27.74
2019-04-20T13:12:17.320Z,27.64
2019-04-20T13:13:16.574Z,27.34